Time;durP1;ratioP1;P1;durP2;ratioP2;P2;SDS_P1;SDS_P2;PMS_P1;PMS_P2;Temp;Humidity;BMP_temperature;BMP_pressure;BME280_temperature;BME280_humidity;BME280_pressure;Samples;Min_cycle;Max_cycle;Signal;HPM_P1;HPM_P2
2022/01/07 00:00:17;;;;;;;2.17;1.65;;;;;;;-143.35;100.00;58682.94;4995119;28;20605;-48
2022/01/07 00:02:44;;;;;;;2.08;1.83;;;;;;;-143.35;100.00;58682.94;4995313;28;20041;-47
2022/01/07 00:05:10;;;;;;;3.90;1.70;;;;;;;-143.35;100.00;58682.94;4995248;28;20022;-47
2022/01/07 00:07:35;;;;;;;2.38;1.70;;;;;;;-143.35;100.00;58682.94;4995050;28;20496;-48
2022/01/07 00:10:01;;;;;;;2.17;1.30;;;;;;;-143.35;100.00;58682.94;4995379;28;20068;-47
2022/01/07 00:12:26;;;;;;;5.57;1.83;;;;;;;-143.35;100.00;58682.94;4994839;28;20030;-49
2022/01/07 00:14:51;;;;;;;0.93;0.90;;;;;;;-143.35;100.00;58682.94;4994989;28;20135;-47
2022/01/07 00:17:17;;;;;;;2.53;1.73;;;;;;;-143.35;100.00;58682.94;4994198;28;20034;-48
2022/01/07 00:19:43;;;;;;;3.25;1.52;;;;;;;-143.35;100.00;58682.94;4995055;28;20464;-47
2022/01/07 00:22:08;;;;;;;6.32;2.00;;;;;;;-143.35;100.00;58682.94;4994846;28;20118;-48
2022/01/07 00:24:33;;;;;;;4.88;1.88;;;;;;;-143.35;100.00;58682.94;4994803;28;20057;-48
2022/01/07 00:27:01;;;;;;;3.47;1.30;;;;;;;-143.35;100.00;58682.94;4994756;28;20377;-49
2022/01/07 00:29:27;;;;;;;3.97;2.30;;;;;;;-143.35;100.00;58682.94;4994682;28;20038;-48
2022/01/07 00:31:52;;;;;;;4.93;1.92;;;;;;;-143.35;100.00;58682.94;4994658;28;20089;-49
2022/01/07 00:34:17;;;;;;;5.53;1.77;;;;;;;-143.35;100.00;58682.94;4994660;28;20029;-49
2022/01/07 00:36:43;;;;;;;3.15;1.58;;;;;;;-143.35;100.00;58682.94;4994653;28;20029;-48
2022/01/07 00:39:08;;;;;;;4.78;2.10;;;;;;;-143.35;100.00;58682.94;4994580;28;20072;-49
2022/01/07 00:41:33;;;;;;;9.63;1.20;;;;;;;-143.35;100.00;58682.94;4994598;28;20018;-48
2022/01/07 00:43:59;;;;;;;5.60;1.20;;;;;;;-143.35;100.00;58682.94;4994606;28;20038;-47
2022/01/07 00:46:24;;;;;;;2.28;1.48;;;;;;;-143.35;100.00;58682.94;4994487;28;20490;-48
2022/01/07 00:48:51;;;;;;;2.22;1.77;;;;;;;-143.35;100.00;58682.94;4994450;28;20057;-48
2022/01/07 00:51:16;;;;;;;1.92;1.73;;;;;;;-143.35;100.00;58682.94;4994487;28;20042;-48
2022/01/07 00:53:42;;;;;;;3.97;1.77;;;;;;;-143.35;100.00;58682.94;4994604;28;20556;-49
2022/01/07 00:56:07;;;;;;;2.35;1.05;;;;;;;-143.35;100.00;58682.94;4994433;28;20038;-47
2022/01/07 00:58:32;;;;;;;14.73;2.05;;;;;;;-143.35;100.00;58682.94;4994399;28;20085;-51
2022/01/07 01:00:58;;;;;;;2.08;1.75;;;;;;;-143.35;100.00;58682.94;4994439;28;20026;-49
2022/01/07 01:03:23;;;;;;;2.53;1.48;;;;;;;-143.35;100.00;58682.94;4994582;28;20023;-48
2022/01/07 01:05:49;;;;;;;3.65;1.83;;;;;;;-143.35;100.00;58682.94;4994384;28;20042;-48
2022/01/07 01:08:15;;;;;;;3.78;1.95;;;;;;;-143.35;100.00;58682.94;4994456;28;20029;-48
2022/01/07 01:10:41;;;;;;;4.35;1.27;;;;;;;-143.35;100.00;58682.94;4994299;28;20112;-48
2022/01/07 01:13:06;;;;;;;6.50;1.30;;;;;;;-143.35;100.00;58682.94;4994505;28;20065;-48
2022/01/07 01:15:32;;;;;;;2.17;1.67;;;;;;;-143.35;100.00;58682.94;4994476;28;20032;-48
2022/01/07 01:17:59;;;;;;;3.13;1.73;;;;;;;-143.35;100.00;58682.94;4994397;28;20504;-50
2022/01/07 01:20:25;;;;;;;2.60;2.17;;;;;;;-143.35;100.00;58682.94;4977023;28;20034;-49
2022/01/07 01:22:50;;;;;;;7.85;1.65;;;;;;;-143.35;100.00;58682.94;4994361;28;20030;-49
2022/01/07 01:25:16;;;;;;;1.60;1.50;;;;;;;-143.35;100.00;58682.94;4994696;28;20377;-49
2022/01/07 01:27:42;;;;;;;2.63;2.00;;;;;;;-143.35;100.00;58682.94;4994816;28;20386;-48
2022/01/07 01:30:11;;;;;;;5.70;1.67;;;;;;;-143.35;100.00;58682.94;4997993;28;20026;-48
2022/01/07 01:32:36;;;;;;;1.95;1.83;;;;;;;-143.35;100.00;58682.94;4997997;28;20050;-49
2022/01/07 01:35:05;;;;;;;10.23;2.28;;;;;;;-143.35;100.00;58682.94;4998014;28;20022;-48
2022/01/07 01:37:30;;;;;;;2.45;2.15;;;;;;;-143.35;100.00;58682.94;4997925;28;20547;-49
2022/01/07 01:39:56;;;;;;;3.95;1.60;;;;;;;-143.35;100.00;58682.94;4997963;28;20026;-48
2022/01/07 01:42:22;;;;;;;3.05;2.75;;;;;;;-143.35;100.00;58682.94;4997869;28;20018;-49
2022/01/07 01:44:47;;;;;;;12.02;2.53;;;;;;;-143.35;100.00;58682.94;4997824;28;20046;-49
2022/01/07 01:47:13;;;;;;;4.47;2.22;;;;;;;-143.35;100.00;58682.94;4997710;28;20026;-49
2022/01/07 01:49:38;;;;;;;6.60;2.70;;;;;;;-143.35;100.00;58682.94;4997578;28;20050;-49
2022/01/07 01:52:04;;;;;;;12.43;2.40;;;;;;;-143.35;100.00;58682.94;4997462;28;20100;-48
2022/01/07 01:54:29;;;;;;;5.65;3.10;;;;;;;-143.35;100.00;58682.94;4997653;28;20026;-48
2022/01/07 01:56:55;;;;;;;2.55;2.08;;;;;;;-143.35;100.00;58682.94;4997572;28;20037;-49
2022/01/07 01:59:28;;;;;;;2.75;2.55;;;;;;;-143.35;100.00;58682.94;4997519;28;20021;-49
2022/01/07 02:01:54;;;;;;;2.20;2.03;;;;;;;-143.35;100.00;58682.94;4997580;28;20093;-49
2022/01/07 02:04:20;;;;;;;8.25;2.47;;;;;;;-143.35;100.00;58682.94;4997531;28;20466;-49
2022/01/07 02:06:46;;;;;;;8.65;2.33;;;;;;;-143.35;100.00;58682.94;4997335;28;20053;-50
2022/01/07 02:09:11;;;;;;;5.82;2.28;;;;;;;-143.35;100.00;58682.94;4997493;28;20413;-48
2022/01/07 02:11:37;;;;;;;5.97;2.78;;;;;;;-143.35;100.00;58682.94;4979875;28;20030;-52
2022/01/07 02:14:02;;;;;;;8.75;3.78;;;;;;;-143.35;100.00;58682.94;4997208;28;20030;-48
2022/01/07 02:16:28;;;;;;;10.93;3.35;;;;;;;-143.35;100.00;58682.94;4997406;28;20030;-49
2022/01/07 02:18:54;;;;;;;3.25;2.40;;;;;;;-143.35;100.00;58682.94;4997176;28;20026;-51
2022/01/07 02:21:20;;;;;;;2.33;1.95;;;;;;;-143.35;100.00;58682.94;4997218;28;20077;-51
2022/01/07 02:23:45;;;;;;;2.88;2.10;;;;;;;-143.35;100.00;58682.94;4997190;28;20033;-51
2022/01/07 02:26:12;;;;;;;5.50;2.72;;;;;;;-143.35;100.00;58682.94;4997035;28;20053;-51
2022/01/07 02:28:39;;;;;;;3.45;1.67;;;;;;;-143.35;100.00;58682.94;4997015;28;20049;-49
2022/01/07 02:31:05;;;;;;;10.48;2.53;;;;;;;-143.35;100.00;58682.94;4979415;28;20125;-49
2022/01/07 02:33:30;;;;;;;2.83;2.45;;;;;;;-143.35;100.00;58682.94;4996983;28;20105;-50
2022/01/07 02:35:56;;;;;;;5.57;3.10;;;;;;;-143.35;100.00;58682.94;4996837;28;20477;-49
2022/01/07 02:38:23;;;;;;;7.80;2.88;;;;;;;-143.35;100.00;58682.94;4996986;28;20023;-50
2022/01/07 02:40:49;;;;;;;3.22;2.58;;;;;;;-143.35;100.00;58682.94;4995954;28;20026;-51
2022/01/07 02:43:14;;;;;;;2.47;2.28;;;;;;;-143.35;100.00;58682.94;4996701;28;20026;-48
2022/01/07 02:45:40;;;;;;;2.25;2.05;;;;;;;-143.35;100.00;58682.94;4996778;28;20022;-48
2022/01/07 02:48:05;;;;;;;2.50;2.25;;;;;;;-143.35;100.00;58682.94;4996551;28;20038;-50
2022/01/07 02:50:35;;;;;;;3.25;2.20;;;;;;;-143.35;100.00;58682.94;4996405;28;20497;-48
2022/01/07 02:53:03;;;;;;;2.28;2.10;;;;;;;-143.35;100.00;58682.94;4996490;28;20120;-48
2022/01/07 02:55:28;;;;;;;3.80;2.45;;;;;;;-143.35;100.00;58682.94;4996484;28;20034;-49
2022/01/07 02:57:54;;;;;;;3.58;2.13;;;;;;;-143.35;100.00;58682.94;4996361;28;20041;-50
2022/01/07 03:00:20;;;;;;;12.73;3.22;;;;;;;-143.35;100.00;58682.94;4996475;28;20031;-48
2022/01/07 03:02:47;;;;;;;12.30;3.40;;;;;;;-143.35;100.00;58682.94;4996335;28;20030;-50
2022/01/07 03:05:13;;;;;;;4.40;3.83;;;;;;;-143.35;100.00;58682.94;4978876;28;20041;-49
2022/01/07 03:07:39;;;;;;;2.53;2.33;;;;;;;-143.35;100.00;58682.94;4996290;28;20461;-49
2022/01/07 03:10:07;;;;;;;4.50;3.85;;;;;;;-143.35;100.00;58682.94;4996293;28;20034;-49
2022/01/07 03:12:32;;;;;;;4.30;2.70;;;;;;;-143.35;100.00;58682.94;4996252;28;20025;-49
2022/01/07 03:14:58;;;;;;;3.10;2.60;;;;;;;-143.35;100.00;58682.94;4996138;28;20466;-48
2022/01/07 03:17:23;;;;;;;2.35;2.17;;;;;;;-143.35;100.00;58682.94;4996173;28;20113;-49
2022/01/07 03:19:49;;;;;;;5.38;2.90;;;;;;;-143.35;100.00;58682.94;4996024;28;20019;-49
2022/01/07 03:22:14;;;;;;;3.67;2.28;;;;;;;-143.35;100.00;58682.94;4996016;28;20354;-51
2022/01/07 03:24:40;;;;;;;9.60;3.38;;;;;;;-143.35;100.00;58682.94;4995763;28;20027;-49
2022/01/07 03:27:06;;;;;;;4.45;2.58;;;;;;;-143.35;100.00;58682.94;4995910;28;20106;-48
2022/01/07 03:29:31;;;;;;;10.02;6.55;;;;;;;-143.35;100.00;58682.94;4995808;28;20062;-49
2022/01/07 03:31:57;;;;;;;10.25;5.10;;;;;;;-143.35;100.00;58682.94;4995721;28;20092;-49
2022/01/07 03:34:22;;;;;;;5.53;3.78;;;;;;;-143.35;100.00;58682.94;4978358;28;20105;-48
2022/01/07 03:36:47;;;;;;;5.97;4.20;;;;;;;-143.35;100.00;58682.94;4995749;28;20469;-49
2022/01/07 03:39:13;;;;;;;7.20;3.50;;;;;;;-143.35;100.00;58682.94;4995799;28;20373;-52
2022/01/07 03:41:38;;;;;;;14.95;5.22;;;;;;;-143.35;100.00;58682.94;4995635;28;20026;-49
2022/01/07 03:44:04;;;;;;;4.70;4.15;;;;;;;-143.35;100.00;58682.94;4995591;28;20080;-49
2022/01/07 03:46:29;;;;;;;6.20;4.05;;;;;;;-143.35;100.00;58682.94;4995478;28;20030;-51
2022/01/07 03:48:54;;;;;;;5.30;4.00;;;;;;;-143.35;100.00;58682.94;5018099;23;20104;-51
2022/01/07 03:51:20;;;;;;;4.40;3.47;;;;;;;-143.35;100.00;58682.94;5015074;28;20461;-51
2022/01/07 03:53:45;;;;;;;4.57;3.97;;;;;;;-143.35;100.00;58682.94;5013900;28;20084;-51
2022/01/07 03:56:17;;;;;;;7.05;4.03;;;;;;;-143.35;100.00;58682.94;5016135;28;20114;-49
2022/01/07 03:58:42;;;;;;;4.10;3.75;;;;;;;-143.35;100.00;58682.94;5015094;28;20499;-48
2022/01/07 04:01:08;;;;;;;5.22;4.22;;;;;;;-143.35;100.00;58682.94;5015007;28;20022;-48
2022/01/07 04:03:33;;;;;;;19.00;5.03;;;;;;;-143.35;100.00;58682.94;5014930;28;20022;-49
2022/01/07 04:05:58;;;;;;;3.88;2.97;;;;;;;-143.35;100.00;58682.94;5014865;28;20107;-48
2022/01/07 04:08:24;;;;;;;14.63;3.25;;;;;;;-143.35;100.00;58682.94;5014831;28;20057;-48
2022/01/07 04:10:49;;;;;;;4.22;3.70;;;;;;;-143.35;100.00;58682.94;5014782;28;20018;-49
2022/01/07 04:13:14;;;;;;;4.03;3.63;;;;;;;-143.35;100.00;58682.94;5014772;28;20037;-49
2022/01/07 04:15:40;;;;;;;5.28;3.97;;;;;;;-143.35;100.00;58682.94;5014816;28;20473;-48
2022/01/07 04:18:05;;;;;;;5.80;3.50;;;;;;;-143.35;100.00;58682.94;5014742;28;20056;-49
2022/01/07 04:20:33;;;;;;;9.73;3.53;;;;;;;-143.35;100.00;58682.94;5014733;28;20024;-48
2022/01/07 04:22:59;;;;;;;3.78;3.38;;;;;;;-143.35;100.00;58682.94;5014542;28;20021;-48
2022/01/07 04:25:24;;;;;;;4.80;3.50;;;;;;;-143.35;100.00;58682.94;5014536;28;20543;-49
2022/01/07 04:27:57;;;;;;;8.93;4.10;;;;;;;-143.35;100.00;58682.94;5014512;28;20026;-48
2022/01/07 04:30:23;;;;;;;4.00;3.50;;;;;;;-143.35;100.00;58682.94;5014572;28;20057;-48
2022/01/07 04:32:49;;;;;;;3.90;3.38;;;;;;;-143.35;100.00;58682.94;5014387;28;20026;-48
2022/01/07 04:35:15;;;;;;;9.25;3.50;;;;;;;-143.35;100.00;58682.94;5014432;28;20354;-48
2022/01/07 04:37:41;;;;;;;12.20;4.05;;;;;;;-143.35;100.00;58682.94;5014487;28;20030;-48
2022/01/07 04:40:10;;;;;;;8.40;3.70;;;;;;;-143.35;100.00;58682.94;5014390;28;20049;-49
2022/01/07 04:42:36;;;;;;;4.85;3.00;;;;;;;-143.35;100.00;58682.94;5014597;28;20041;-49
2022/01/07 04:45:02;;;;;;;3.60;3.28;;;;;;;-143.35;100.00;58682.94;5014369;28;20485;-49
2022/01/07 04:47:27;;;;;;;13.27;2.75;;;;;;;-143.35;100.00;58682.94;5014141;28;20049;-48
2022/01/07 04:49:52;;;;;;;4.78;3.65;;;;;;;-143.35;100.00;58682.94;5014417;28;20530;-50
2022/01/07 04:52:20;;;;;;;10.82;4.38;;;;;;;-143.35;100.00;58682.94;5014263;28;20120;-48
2022/01/07 04:54:46;;;;;;;17.42;4.43;;;;;;;-143.35;100.00;58682.94;5014167;28;20059;-48
2022/01/07 04:57:11;;;;;;;10.45;4.25;;;;;;;-143.35;100.00;58682.94;5014216;28;20461;-49
2022/01/07 04:59:37;;;;;;;6.30;3.17;;;;;;;-143.35;100.00;58682.94;5014108;28;20030;-49
2022/01/07 05:02:02;;;;;;;4.07;3.35;;;;;;;-143.35;100.00;58682.94;5014056;28;20456;-51
2022/01/07 05:04:28;;;;;;;7.30;3.30;;;;;;;-143.35;100.00;58682.94;5016901;28;20030;-49
2022/01/07 05:06:53;;;;;;;10.70;3.97;;;;;;;-143.35;100.00;58682.94;5018070;28;20556;-50
2022/01/07 05:09:19;;;;;;;19.30;5.18;;;;;;;-143.35;100.00;58682.94;5017964;28;20032;-48
2022/01/07 05:11:46;;;;;;;11.93;3.47;;;;;;;-143.35;100.00;58682.94;5017966;28;20022;-48
2022/01/07 05:14:12;;;;;;;5.53;3.22;;;;;;;-143.35;100.00;58682.94;5018022;28;20076;-48
2022/01/07 05:16:38;;;;;;;6.32;4.10;;;;;;;-143.35;100.00;58682.94;5017973;28;20025;-49
2022/01/07 05:19:04;;;;;;;4.22;3.15;;;;;;;-143.35;100.00;58682.94;5017990;28;20096;-49
2022/01/07 05:21:29;;;;;;;3.22;2.47;;;;;;;-143.35;100.00;58682.94;5017911;28;20092;-48
2022/01/07 05:23:55;;;;;;;8.07;3.50;;;;;;;-143.35;100.00;58682.94;5017742;28;20026;-51
2022/01/07 05:26:20;;;;;;;7.50;4.15;;;;;;;-143.35;100.00;58682.94;5017918;28;20029;-48
2022/01/07 05:28:46;;;;;;;3.00;2.70;;;;;;;-143.35;100.00;58682.94;5017807;28;20427;-48
2022/01/07 05:31:11;;;;;;;4.30;2.97;;;;;;;-143.35;100.00;58682.94;5017664;28;20033;-48
2022/01/07 05:33:36;;;;;;;2.90;2.63;;;;;;;-143.35;100.00;58682.94;5017629;28;20030;-49
2022/01/07 05:36:02;;;;;;;11.80;4.82;;;;;;;-143.35;100.00;58682.94;5017655;28;20033;-49
2022/01/07 05:38:27;;;;;;;5.00;2.70;;;;;;;-143.35;100.00;58682.94;5017538;28;20084;-49
2022/01/07 05:40:53;;;;;;;11.05;3.72;;;;;;;-143.35;100.00;58682.94;5018136;28;20381;-50
2022/01/07 05:43:18;;;;;;;7.10;2.15;;;;;;;-143.35;100.00;58682.94;5017782;28;20030;-47
2022/01/07 05:45:45;;;;;;;3.30;2.63;;;;;;;-143.35;100.00;58682.94;5017523;28;20100;-48
2022/01/07 05:48:14;;;;;;;3.17;2.08;;;;;;;-143.35;100.00;58682.94;5017125;28;20436;-48
2022/01/07 05:50:39;;;;;;;3.95;1.95;;;;;;;-143.35;100.00;58682.94;5017352;28;20083;-47
2022/01/07 05:53:05;;;;;;;3.90;2.75;;;;;;;-143.35;100.00;58682.94;5017126;28;20034;-47
2022/01/07 05:55:30;;;;;;;4.65;1.60;;;;;;;-143.35;100.00;58682.94;5017209;28;20022;-48
2022/01/07 05:57:56;;;;;;;4.38;2.42;;;;;;;-143.35;100.00;58682.94;5017206;28;20381;-48
2022/01/07 06:00:21;;;;;;;8.40;1.52;;;;;;;-143.35;100.00;58682.94;5017256;28;20053;-48
2022/01/07 06:02:46;;;;;;;4.70;1.95;;;;;;;-143.35;100.00;58682.94;5015980;28;20021;-47
2022/01/07 06:05:12;;;;;;;4.38;1.98;;;;;;;-143.35;100.00;58682.94;5017089;28;20026;-48
2022/01/07 06:07:37;;;;;;;2.20;2.00;;;;;;;-143.35;100.00;58682.94;5017128;28;20484;-48
2022/01/07 06:10:06;;;;;;;3.22;1.67;;;;;;;-143.35;100.00;58682.94;5016923;28;20117;-49
2022/01/07 06:12:31;;;;;;;4.03;2.22;;;;;;;-143.35;100.00;58682.94;5016725;28;20041;-51
2022/01/07 06:14:57;;;;;;;2.72;1.83;;;;;;;-143.35;100.00;58682.94;5015661;28;20377;-47
2022/01/07 06:17:23;;;;;;;4.50;1.80;;;;;;;-143.35;100.00;58682.94;5016860;28;20037;-48
2022/01/07 06:19:48;;;;;;;11.15;2.90;;;;;;;-143.35;100.00;58682.94;5016889;28;20022;-47
2022/01/07 06:22:13;;;;;;;1.27;1.17;;;;;;;-143.35;100.00;58682.94;5016708;28;20057;-49
2022/01/07 06:24:39;;;;;;;5.47;1.42;;;;;;;-143.35;100.00;58682.94;5016704;28;20080;-47
2022/01/07 06:27:04;;;;;;;3.60;1.60;;;;;;;-143.35;100.00;58682.94;5016690;28;20029;-47
2022/01/07 06:29:29;;;;;;;15.00;1.42;;;;;;;-143.35;100.00;58682.94;5016610;28;20026;-49
2022/01/07 06:31:55;;;;;;;2.40;1.65;;;;;;;-143.35;100.00;58682.94;5016669;28;20025;-48
2022/01/07 06:34:20;;;;;;;3.80;1.98;;;;;;;-143.35;100.00;58682.94;5016643;28;20029;-48
2022/01/07 06:36:47;;;;;;;3.75;1.90;;;;;;;-143.35;100.00;58682.94;5016487;28;20036;-48
2022/01/07 06:39:19;;;;;;;5.68;1.67;;;;;;;-143.35;100.00;58682.94;5016439;28;20038;-48
2022/01/07 06:41:46;;;;;;;2.38;1.35;;;;;;;-143.35;100.00;58682.94;5016305;28;20021;-47
2022/01/07 06:44:13;;;;;;;4.97;2.42;;;;;;;-143.35;100.00;58682.94;5016166;28;20044;-48
2022/01/07 06:46:38;;;;;;;9.05;2.25;;;;;;;-143.35;100.00;58682.94;5016357;28;20028;-48
2022/01/07 06:49:04;;;;;;;2.33;2.03;;;;;;;-143.35;100.00;58682.94;5016170;28;20120;-48
2022/01/07 06:51:31;;;;;;;2.70;2.45;;;;;;;-143.35;100.00;58682.94;5016133;28;20465;-50
2022/01/07 06:53:56;;;;;;;3.70;1.50;;;;;;;-143.35;100.00;58682.94;5016173;28;20030;-49
2022/01/07 06:56:21;;;;;;;0.75;0.75;;;;;;;-143.35;100.00;58682.94;5016252;28;20125;-49
2022/01/07 06:58:47;;;;;;;5.30;2.65;;;;;;;-143.35;100.00;58682.94;5016026;28;20026;-48
2022/01/07 07:01:12;;;;;;;4.97;2.40;;;;;;;-143.35;100.00;58682.94;5016096;28;20018;-48
2022/01/07 07:03:40;;;;;;;5.22;1.60;;;;;;;-143.35;100.00;58682.94;5015917;28;20026;-48
2022/01/07 07:06:05;;;;;;;2.53;2.25;;;;;;;-143.35;100.00;58682.94;5015980;28;20377;-48
2022/01/07 07:08:30;;;;;;;1.75;1.40;;;;;;;-143.35;100.00;58682.94;5016040;28;20032;-48
2022/01/07 07:10:56;;;;;;;4.30;2.05;;;;;;;-143.35;100.00;58682.94;5015848;28;20034;-49
2022/01/07 07:13:21;;;;;;;7.82;1.38;;;;;;;-143.35;100.00;58682.94;5015893;28;20049;-48
2022/01/07 07:15:46;;;;;;;2.60;2.25;;;;;;;-143.35;100.00;58682.94;5015745;28;20029;-48
2022/01/07 07:18:13;;;;;;;1.15;0.80;;;;;;;-143.35;100.00;58682.94;5015699;28;20484;-48
2022/01/07 07:20:38;;;;;;;0.95;0.95;;;;;;;-143.35;100.00;58682.94;5015663;28;20029;-48
2022/01/07 07:23:04;;;;;;;6.38;3.00;;;;;;;-143.35;100.00;58682.94;5015522;28;20038;-48
2022/01/07 07:25:29;;;;;;;2.72;2.53;;;;;;;-143.35;100.00;58682.94;5015570;28;20033;-48
2022/01/07 07:27:54;;;;;;;12.18;3.10;;;;;;;-143.35;100.00;58682.94;5015174;28;20461;-48
2022/01/07 07:30:20;;;;;;;3.00;2.63;;;;;;;-143.35;100.00;58682.94;5015492;28;20108;-49
2022/01/07 07:32:47;;;;;;;3.40;2.33;;;;;;;-143.35;100.00;58682.94;5015466;28;20416;-50
2022/01/07 07:37:38;;;;;;;12.38;3.28;;;;;;;-143.35;100.00;58682.94;5015680;28;20032;-48
2022/01/07 07:40:04;;;;;;;8.30;2.08;;;;;;;-143.35;100.00;58682.94;5015380;28;20026;-48
2022/01/07 07:42:29;;;;;;;4.53;2.42;;;;;;;-143.35;100.00;58682.94;5015426;28;20374;-47
2022/01/07 07:44:54;;;;;;;5.57;2.53;;;;;;;-143.35;100.00;58682.94;5015301;28;20088;-48
2022/01/07 07:47:20;;;;;;;2.30;1.45;;;;;;;-143.35;100.00;58682.94;5015122;28;20041;-47
2022/01/07 07:49:45;;;;;;;5.25;2.35;;;;;;;-143.35;100.00;58682.94;5015300;28;20029;-48
2022/01/07 07:52:12;;;;;;;2.15;1.90;;;;;;;-143.35;100.00;58682.94;5015046;28;20026;-48
2022/01/07 07:54:37;;;;;;;3.28;1.63;;;;;;;-143.35;100.00;58682.94;5015104;28;20029;-47
2022/01/07 07:57:03;;;;;;;4.50;1.80;;;;;;;-143.35;100.00;58682.94;5015104;28;20362;-48
2022/01/07 07:59:28;;;;;;;2.60;1.60;;;;;;;-143.35;100.00;58682.94;5014988;28;20053;-49
2022/01/07 08:01:54;;;;;;;4.22;2.15;;;;;;;-143.35;100.00;58682.94;5014824;28;20058;-48
2022/01/07 08:04:21;;;;;;;4.85;2.30;;;;;;;-143.35;100.00;58682.94;5013655;28;20022;-47
2022/01/07 08:06:46;;;;;;;2.88;1.73;;;;;;;-143.35;100.00;58682.94;5014868;28;20094;-48
2022/01/07 08:09:14;;;;;;;10.55;2.17;;;;;;;-143.35;100.00;58682.94;5014710;28;20037;-48
2022/01/07 08:11:51;;;;;;;2.63;1.42;;;;;;;-143.35;100.00;58682.94;5015041;28;20018;-48
2022/01/07 08:17:04;;;;;;;2.47;1.48;;;;;;;-143.35;100.00;58682.94;5015099;28;20044;-48
2022/01/07 08:19:29;;;;;;;11.60;5.30;;;;;;;-143.35;100.00;58682.94;5014746;28;20030;-47
2022/01/07 08:21:54;;;;;;;8.85;4.95;;;;;;;-143.35;100.00;58682.94;5014624;28;20029;-47
2022/01/07 08:24:20;;;;;;;6.20;4.20;;;;;;;-143.35;100.00;58682.94;5014630;28;20105;-47
2022/01/07 08:26:48;;;;;;;4.97;4.15;;;;;;;-143.35;100.00;58682.94;5014535;28;20037;-48
2022/01/07 08:29:14;;;;;;;9.40;5.15;;;;;;;-143.35;100.00;58682.94;5014514;28;20030;-48
2022/01/07 08:36:50;;;;;;;7.07;3.78;;;;;;;-143.35;100.00;58682.94;5014647;28;20511;-48
2022/01/07 08:39:16;;;;;;;8.95;3.63;;;;;;;-143.35;100.00;58682.94;5013828;28;20057;-50
2022/01/07 08:41:42;;;;;;;8.30;3.70;;;;;;;-143.35;100.00;58682.94;5014515;28;20025;-49
2022/01/07 08:44:08;;;;;;;5.55;3.47;;;;;;;-143.35;100.00;58682.94;5014269;28;20072;-47
2022/01/07 08:46:34;;;;;;;6.43;3.83;;;;;;;-143.35;100.00;58682.94;5014312;28;20038;-48
2022/01/07 08:49:00;;;;;;;4.47;3.55;;;;;;;-143.35;100.00;58682.94;5014024;28;20374;-47
2022/01/07 08:51:28;;;;;;;5.40;3.25;;;;;;;-143.35;100.00;58682.94;5014171;28;20040;-47
2022/01/07 08:53:54;;;;;;;8.38;3.65;;;;;;;-143.35;100.00;58682.94;5014100;28;20022;-49
2022/01/07 08:56:23;;;;;;;4.43;2.40;;;;;;;-143.35;100.00;58682.94;5014168;28;20389;-48
2022/01/07 08:58:52;;;;;;;3.50;2.47;;;;;;;-143.35;100.00;58682.94;5014082;28;20100;-47
2022/01/07 09:01:18;;;;;;;2.97;2.65;;;;;;;-143.35;100.00;58682.94;5013995;28;20025;-49
2022/01/07 09:03:43;;;;;;;4.53;2.92;;;;;;;-143.35;100.00;58682.94;5014084;28;20491;-48
2022/01/07 09:06:09;;;;;;;5.82;3.15;;;;;;;-143.35;100.00;58682.94;5014252;28;20104;-50
2022/01/07 09:08:34;;;;;;;4.47;3.17;;;;;;;-143.35;100.00;58682.94;5013928;28;20024;-47
2022/01/07 09:11:00;;;;;;;3.10;2.80;;;;;;;-143.35;100.00;58682.94;5013938;28;20034;-48
2022/01/07 09:13:27;;;;;;;14.48;3.75;;;;;;;-143.35;100.00;58682.94;5014036;28;20022;-48
2022/01/07 09:15:53;;;;;;;11.65;3.28;;;;;;;-143.35;100.00;58682.94;5014201;28;20022;-51
2022/01/07 09:18:20;;;;;;;9.43;2.20;;;;;;;-143.35;100.00;58682.94;5014096;28;20046;-48
2022/01/07 09:20:46;;;;;;;2.42;1.65;;;;;;;-143.35;100.00;58682.94;5014158;28;20040;-48
2022/01/07 09:23:13;;;;;;;2.65;1.98;;;;;;;-143.35;100.00;58682.94;5014248;28;20029;-51
2022/01/07 09:25:38;;;;;;;4.13;1.58;;;;;;;-143.35;100.00;58682.94;4996675;28;20022;-48
2022/01/07 09:28:05;;;;;;;7.95;2.63;;;;;;;-143.35;100.00;58682.94;5014181;28;20045;-48
2022/01/07 09:30:31;;;;;;;5.57;1.48;;;;;;;-143.35;100.00;58682.94;5013712;28;20041;-50
2022/01/07 09:32:57;;;;;;;3.90;1.80;;;;;;;-143.35;100.00;58682.94;5013852;28;20026;-48
2022/01/07 09:35:22;;;;;;;5.07;1.85;;;;;;;-143.35;100.00;58682.94;5013833;28;20037;-48
2022/01/07 09:37:50;;;;;;;2.28;1.60;;;;;;;-143.35;100.00;58682.94;5013824;28;20022;-48
2022/01/07 09:40:15;;;;;;;2.78;1.70;;;;;;;-143.35;100.00;58682.94;5013713;28;20494;-48
2022/01/07 09:42:57;;;;;;;3.45;1.58;;;;;;;-143.35;100.00;58682.94;5013882;28;20029;-49
2022/01/07 09:45:24;;;;;;;5.03;2.70;;;;;;;-143.35;100.00;58682.94;5013770;28;20110;-48
2022/01/07 09:47:50;;;;;;;2.58;1.58;;;;;;;-143.35;100.00;58682.94;5013467;28;20050;-50
2022/01/07 09:50:15;;;;;;;5.72;1.80;;;;;;;-143.35;100.00;58682.94;5015971;28;20040;-49
2022/01/07 09:52:41;;;;;;;7.47;1.17;;;;;;;-143.35;100.00;58682.94;5017359;28;20065;-48
2022/01/07 09:55:07;;;;;;;8.98;1.70;;;;;;;-143.35;100.00;58682.94;5017451;28;20072;-49
2022/01/07 09:57:32;;;;;;;4.85;2.42;;;;;;;-143.35;100.00;58682.94;5017840;28;20037;-48
2022/01/07 09:59:59;;;;;;;3.55;2.15;;;;;;;-143.35;100.00;58682.94;5016811;28;20491;-49
2022/01/07 10:02:25;;;;;;;7.30;1.85;;;;;;;-143.35;100.00;58682.94;5017051;28;20060;-48
2022/01/07 10:04:51;;;;;;;6.40;2.80;;;;;;;-143.35;100.00;58682.94;5017071;28;20021;-48
2022/01/07 10:07:21;;;;;;;5.13;2.08;;;;;;;-143.35;100.00;58682.94;5017170;28;20021;-48
2022/01/07 10:10:14;;;;;;;6.82;1.98;;;;;;;-143.35;100.00;58682.94;5016979;28;20029;-49
2022/01/07 10:13:00;;;;;;;1.75;1.52;;;;;;;-143.35;100.00;58682.94;5016970;28;20030;-48
2022/01/07 10:15:43;;;;;;;10.25;2.35;;;;;;;-143.35;100.00;58682.94;5016965;28;20061;-50
2022/01/07 10:18:14;;;;;;;2.80;1.13;;;;;;;-143.35;100.00;58682.94;5015858;28;20022;-48
2022/01/07 10:20:45;;;;;;;3.95;1.73;;;;;;;-143.35;100.00;58682.94;5016906;28;20105;-49
2022/01/07 10:23:24;;;;;;;1.67;1.40;;;;;;;-143.35;100.00;58682.94;5016948;28;20076;-48
2022/01/07 10:25:53;;;;;;;5.75;1.65;;;;;;;-143.35;100.00;58682.94;5016916;28;20026;-49
2022/01/07 10:28:20;;;;;;;9.77;2.53;;;;;;;-143.35;100.00;58682.94;5016844;28;20018;-50
2022/01/07 10:30:54;;;;;;;3.53;1.08;;;;;;;-143.35;100.00;58682.94;5016662;28;20022;-49
2022/01/07 10:33:22;;;;;;;8.80;1.65;;;;;;;-143.35;100.00;58682.94;5016630;28;20447;-47
2022/01/07 10:35:54;;;;;;;1.90;1.08;;;;;;;-143.35;100.00;58682.94;5015568;28;20030;-47
2022/01/07 10:38:21;;;;;;;2.03;1.33;;;;;;;-143.35;100.00;58682.94;5016429;28;20061;-47
2022/01/07 10:40:48;;;;;;;3.22;1.23;;;;;;;-143.35;100.00;58682.94;5016491;28;20041;-49
2022/01/07 10:43:24;;;;;;;3.25;1.38;;;;;;;-143.35;100.00;58682.94;5016320;28;20026;-47
2022/01/07 10:45:58;;;;;;;7.40;2.08;;;;;;;-143.35;100.00;58682.94;5016334;28;20021;-49
2022/01/07 10:48:35;;;;;;;4.43;1.35;;;;;;;-143.35;100.00;58682.94;5016174;28;20064;-49
2022/01/07 10:51:06;;;;;;;2.47;1.58;;;;;;;-143.35;100.00;58682.94;5016172;28;20494;-48
2022/01/07 10:53:31;;;;;;;3.15;1.77;;;;;;;-143.35;100.00;58682.94;5016087;28;20049;-48
2022/01/07 10:56:06;;;;;;;1.17;1.08;;;;;;;-143.35;100.00;58682.94;5014916;28;20026;-49
2022/01/07 10:58:53;;;;;;;3.90;1.27;;;;;;;-143.35;100.00;58682.94;5016072;28;20053;-48
2022/01/07 11:01:21;;;;;;;3.50;1.00;;;;;;;-143.35;100.00;58682.94;5014171;28;20044;-48
2022/01/07 11:03:47;;;;;;;1.85;1.35;;;;;;;-143.35;100.00;58682.94;5015811;28;20030;-48
2022/01/07 11:06:13;;;;;;;4.55;1.73;;;;;;;-143.35;100.00;58682.94;5015887;28;20044;-49
2022/01/07 11:08:39;;;;;;;5.20;2.05;;;;;;;-143.35;100.00;58682.94;5015950;28;20476;-49
2022/01/07 11:11:05;;;;;;;4.70;2.05;;;;;;;-143.35;100.00;58682.94;5015610;28;20501;-48
2022/01/07 11:13:34;;;;;;;2.80;1.58;;;;;;;-143.35;100.00;58682.94;5015790;28;20062;-51
2022/01/07 11:16:00;;;;;;;1.92;1.35;;;;;;;-143.35;100.00;58682.94;5015757;28;20107;-48